createdAt,value
2022-11-20T00:00:13.155Z,5.94
2022-11-20T00:01:17.021Z,5.93
2022-11-20T00:02:18.863Z,5.95
2022-11-20T00:03:20.712Z,5.97
2022-11-20T00:04:22.663Z,5.99
2022-11-20T00:05:24.520Z,6.00
2022-11-20T00:06:27.010Z,6.00
2022-11-20T00:07:28.845Z,5.99
2022-11-20T00:08:30.731Z,5.99
2022-11-20T00:09:32.554Z,6.00
2022-11-20T00:10:37.077Z,6.02
2022-11-20T00:11:38.976Z,6.02
2022-11-20T00:12:40.726Z,5.98
2022-11-20T00:13:42.795Z,5.97
2022-11-20T00:14:44.545Z,5.96
2022-11-20T00:15:46.341Z,5.95
2022-11-20T00:16:48.205Z,5.95
2022-11-20T00:17:49.926Z,5.97
2022-11-20T00:18:52.326Z,5.94
2022-11-20T00:19:54.255Z,5.94
2022-11-20T00:21:01.535Z,5.97
2022-11-20T00:22:03.365Z,5.95
2022-11-20T00:23:05.159Z,5.96
2022-11-20T00:24:07.228Z,5.94
2022-11-20T00:25:09.070Z,5.92
2022-11-20T00:26:13.068Z,5.92
2022-11-20T00:27:14.823Z,5.92
2022-11-20T00:28:16.615Z,5.88
2022-11-20T00:29:18.720Z,5.85
2022-11-20T00:30:21.105Z,5.85
2022-11-20T00:31:23.169Z,5.83
2022-11-20T00:32:25.000Z,5.86
2022-11-20T00:33:26.877Z,5.88
2022-11-20T00:34:28.652Z,5.92
2022-11-20T00:35:31.013Z,5.91
2022-11-20T00:36:34.143Z,5.92
2022-11-20T00:37:35.959Z,5.94
2022-11-20T00:38:37.965Z,5.89
2022-11-20T00:39:39.747Z,5.82
2022-11-20T00:40:41.628Z,5.74
2022-11-20T00:41:43.400Z,5.72
2022-11-20T00:42:45.143Z,5.71
2022-11-20T00:43:46.952Z,5.72
2022-11-20T00:44:49.030Z,5.72
2022-11-20T00:45:50.830Z,5.75
2022-11-20T00:46:52.671Z,5.78
2022-11-20T00:47:54.502Z,5.82
2022-11-20T00:48:56.423Z,5.84
2022-11-20T00:49:58.209Z,5.80
2022-11-20T00:51:00.150Z,5.79
2022-11-20T00:52:02.034Z,5.75
2022-11-20T00:53:03.778Z,5.72
2022-11-20T00:54:05.638Z,5.76
2022-11-20T00:55:07.659Z,5.81
2022-11-20T00:56:11.930Z,5.85
2022-11-20T00:57:13.709Z,5.90
2022-11-20T00:58:15.514Z,5.90
2022-11-20T00:59:17.411Z,5.88
2022-11-20T01:00:19.313Z,5.86
2022-11-20T01:01:22.518Z,5.87
2022-11-20T01:02:24.430Z,5.86
2022-11-20T01:03:27.301Z,5.84
2022-11-20T01:04:29.230Z,5.82
2022-11-20T01:05:35.195Z,5.83
2022-11-20T01:06:38.240Z,5.83
2022-11-20T01:07:40.104Z,5.86
2022-11-20T01:08:42.086Z,5.89
2022-11-20T01:09:43.968Z,5.91
2022-11-20T01:10:45.782Z,5.92
2022-11-20T01:11:47.701Z,5.93
2022-11-20T01:13:09.372Z,5.93
2022-11-20T01:14:12.992Z,5.93
2022-11-20T01:15:14.821Z,5.94
2022-11-20T01:16:18.086Z,5.93
2022-11-20T01:17:19.915Z,5.89
2022-11-20T01:18:21.717Z,5.89
2022-11-20T01:19:25.220Z,5.90
2022-11-20T01:20:27.310Z,5.91
2022-11-20T01:21:33.141Z,5.85
2022-11-20T01:22:34.948Z,5.86
2022-11-20T01:23:37.702Z,5.89
2022-11-20T01:24:39.528Z,5.91
2022-11-20T01:25:41.466Z,5.92
2022-11-20T01:26:44.159Z,5.93
2022-11-20T01:27:45.974Z,5.94
2022-11-20T01:28:48.318Z,5.97
2022-11-20T01:29:50.190Z,5.94
2022-11-20T01:30:52.081Z,5.92
2022-11-20T01:31:54.426Z,5.93
2022-11-20T01:32:56.783Z,5.96
2022-11-20T01:34:00.187Z,5.97
2022-11-20T01:35:02.020Z,5.97
2022-11-20T01:36:07.646Z,5.93
2022-11-20T01:37:09.394Z,5.89
2022-11-20T01:38:11.235Z,5.89
2022-11-20T01:39:14.821Z,5.89
2022-11-20T01:40:16.648Z,5.88
2022-11-20T01:41:37.212Z,5.87
2022-11-20T01:42:57.255Z,5.82
2022-11-20T01:43:59.659Z,5.84
2022-11-20T01:45:02.322Z,5.86
2022-11-20T01:46:16.446Z,5.85
2022-11-20T01:47:26.866Z,5.86
2022-11-20T01:48:37.622Z,5.87
2022-11-20T01:49:42.173Z,5.88
2022-11-20T01:50:44.330Z,5.84
2022-11-20T01:51:53.972Z,5.80
2022-11-20T01:53:11.319Z,5.80
2022-11-20T01:54:17.106Z,5.81
2022-11-20T01:55:20.433Z,5.84
2022-11-20T01:56:22.690Z,5.82
2022-11-20T01:57:26.359Z,5.82
2022-11-20T01:58:34.449Z,5.85
2022-11-20T01:59:37.099Z,5.87
2022-11-20T02:00:38.900Z,5.89
2022-11-20T02:01:40.898Z,5.90
2022-11-20T02:02:45.241Z,5.89
2022-11-20T02:03:47.886Z,5.84
2022-11-20T02:04:53.036Z,5.81
2022-11-20T02:05:54.727Z,5.80
2022-11-20T02:07:02.061Z,5.82
2022-11-20T02:08:04.801Z,5.85
2022-11-20T02:09:06.627Z,5.87
2022-11-20T02:10:08.648Z,5.88
2022-11-20T02:11:10.752Z,5.90
2022-11-20T02:12:32.667Z,5.92
2022-11-20T02:13:44.346Z,5.92
2022-11-20T02:14:46.204Z,5.90
2022-11-20T02:15:48.548Z,5.87
2022-11-20T02:16:50.960Z,5.90
2022-11-20T02:17:52.808Z,5.90
2022-11-20T02:18:56.098Z,5.90
2022-11-20T02:19:57.968Z,5.91
2022-11-20T02:21:08.049Z,5.93
2022-11-20T02:22:15.801Z,5.92
2022-11-20T02:23:32.693Z,5.90
2022-11-20T02:24:35.001Z,5.92
2022-11-20T02:25:38.094Z,5.82
2022-11-20T02:26:45.640Z,5.79
2022-11-20T02:27:48.028Z,5.78
2022-11-20T02:28:50.722Z,5.79
2022-11-20T02:29:54.343Z,5.77
2022-11-20T02:30:56.232Z,5.70
2022-11-20T02:32:00.107Z,5.69
2022-11-20T02:33:01.911Z,5.72
2022-11-20T02:34:03.785Z,5.75
2022-11-20T02:35:09.217Z,5.77
2022-11-20T02:36:12.892Z,5.78
2022-11-20T02:37:15.343Z,5.76
2022-11-20T02:38:17.188Z,5.77
2022-11-20T02:39:20.445Z,5.73
2022-11-20T02:40:23.133Z,5.45
2022-11-20T02:41:31.648Z,5.37
2022-11-20T02:42:33.455Z,5.43
2022-11-20T02:43:35.196Z,5.51
2022-11-20T02:44:36.939Z,5.57
2022-11-20T02:45:38.953Z,5.56
2022-11-20T02:46:40.876Z,5.58
2022-11-20T02:47:42.675Z,5.61
2022-11-20T02:48:44.564Z,5.66
2022-11-20T02:49:46.429Z,5.70
2022-11-20T02:50:48.346Z,5.75
2022-11-20T02:51:50.241Z,5.78
2022-11-20T02:52:52.076Z,5.79
2022-11-20T02:53:53.910Z,5.77
2022-11-20T02:54:55.688Z,5.78
2022-11-20T02:55:57.632Z,5.77
2022-11-20T02:56:59.470Z,5.79
2022-11-20T02:58:01.240Z,5.75
2022-11-20T02:59:03.195Z,5.73
2022-11-20T03:00:05.451Z,5.75
2022-11-20T03:01:07.337Z,5.76
2022-11-20T03:02:09.208Z,5.80
2022-11-20T03:03:10.978Z,5.82
2022-11-20T03:04:12.909Z,5.82
2022-11-20T03:05:14.775Z,5.85
2022-11-20T03:06:17.793Z,5.86
2022-11-20T03:07:19.585Z,5.87
2022-11-20T03:08:21.435Z,5.89
2022-11-20T03:09:23.547Z,5.90
2022-11-20T03:10:25.765Z,5.88
2022-11-20T03:11:28.197Z,5.91
2022-11-20T03:12:29.997Z,5.91
2022-11-20T03:13:31.823Z,5.94
2022-11-20T03:14:33.679Z,5.97
2022-11-20T03:15:36.942Z,5.97
2022-11-20T03:16:38.822Z,5.96
2022-11-20T03:17:40.606Z,5.95
2022-11-20T03:18:43.029Z,5.96
2022-11-20T03:19:44.866Z,5.92
2022-11-20T03:20:46.750Z,5.91
2022-11-20T03:21:48.629Z,5.89
2022-11-20T03:22:50.486Z,5.85
2022-11-20T03:23:52.258Z,5.82
2022-11-20T03:24:54.061Z,5.82
2022-11-20T03:25:55.937Z,5.84
2022-11-20T03:26:57.755Z,5.81
2022-11-20T03:27:59.524Z,5.78
2022-11-20T03:29:02.810Z,5.84
2022-11-20T03:30:05.465Z,5.86
2022-11-20T03:31:08.198Z,5.86
2022-11-20T03:32:10.096Z,5.85
2022-11-20T03:33:11.948Z,5.80
2022-11-20T03:34:14.011Z,5.80
2022-11-20T03:35:15.918Z,5.80
2022-11-20T03:36:19.388Z,5.82
2022-11-20T03:37:21.170Z,5.85
2022-11-20T03:38:22.997Z,5.89
2022-11-20T03:39:24.828Z,5.92
2022-11-20T03:40:26.634Z,5.94
2022-11-20T03:41:29.843Z,5.97
2022-11-20T03:42:46.923Z,6.00
2022-11-20T03:44:07.964Z,6.01
2022-11-20T03:45:09.999Z,6.00
2022-11-20T03:46:11.848Z,5.98
2022-11-20T03:47:13.728Z,5.99
2022-11-20T03:48:15.593Z,6.01
2022-11-20T03:49:17.426Z,6.01
2022-11-20T03:50:19.227Z,6.00
2022-11-20T03:51:25.630Z,6.00
2022-11-20T03:52:27.430Z,5.99
2022-11-20T03:53:29.230Z,5.97
2022-11-20T03:54:31.115Z,5.98
2022-11-20T03:55:32.897Z,6.00
2022-11-20T03:56:36.391Z,6.00
2022-11-20T03:57:38.255Z,5.99
2022-11-20T03:58:40.931Z,5.99
2022-11-20T03:59:42.712Z,6.01
2022-11-20T04:00:44.620Z,6.03
2022-11-20T04:01:49.435Z,6.02
2022-11-20T04:02:51.605Z,5.95
2022-11-20T04:03:54.655Z,5.94
2022-11-20T04:04:56.408Z,5.95
2022-11-20T04:06:02.579Z,5.97
2022-11-20T04:07:04.653Z,5.92
2022-11-20T04:08:06.706Z,5.94
2022-11-20T04:09:08.575Z,5.95
2022-11-20T04:10:10.395Z,5.93
2022-11-20T04:11:19.989Z,5.89
2022-11-20T04:12:21.938Z,5.92
2022-11-20T04:13:23.853Z,5.94
2022-11-20T04:14:25.740Z,5.98
2022-11-20T04:15:27.502Z,5.99
2022-11-20T04:16:33.878Z,5.97
2022-11-20T04:17:35.715Z,5.98
2022-11-20T04:18:37.723Z,5.99
2022-11-20T04:19:39.564Z,6.00
2022-11-20T04:20:41.419Z,6.03
2022-11-20T04:21:43.930Z,6.06
2022-11-20T04:22:45.863Z,6.07
2022-11-20T04:23:47.757Z,6.08
2022-11-20T04:24:49.539Z,6.09
2022-11-20T04:25:51.556Z,6.08
2022-11-20T04:26:53.341Z,6.08
2022-11-20T04:27:55.845Z,6.06
2022-11-20T04:28:58.860Z,6.07
2022-11-20T04:30:00.693Z,6.08
2022-11-20T04:31:03.814Z,6.09
2022-11-20T04:32:05.725Z,6.10
2022-11-20T04:33:07.539Z,6.09
2022-11-20T04:34:09.542Z,6.10
2022-11-20T04:35:11.372Z,6.10
2022-11-20T04:36:14.616Z,6.10
2022-11-20T04:37:16.449Z,6.10
2022-11-20T04:38:19.028Z,6.09
2022-11-20T04:39:21.231Z,6.07
2022-11-20T04:40:23.227Z,6.06
2022-11-20T04:41:26.302Z,6.03
2022-11-20T04:42:30.994Z,6.00
2022-11-20T04:43:33.688Z,5.99
2022-11-20T04:44:35.589Z,5.99
2022-11-20T04:45:37.554Z,5.98
2022-11-20T04:46:40.753Z,5.99
2022-11-20T04:47:42.520Z,5.98
2022-11-20T04:48:44.757Z,5.95
2022-11-20T04:49:46.707Z,5.94
2022-11-20T04:50:48.653Z,5.93
2022-11-20T04:51:50.472Z,5.93
2022-11-20T04:52:52.271Z,5.95
2022-11-20T04:53:54.501Z,5.95
2022-11-20T04:54:56.583Z,5.94
2022-11-20T04:56:02.575Z,5.93
2022-11-20T04:57:04.396Z,5.95
2022-11-20T04:58:06.236Z,5.97
2022-11-20T04:59:08.038Z,5.98
2022-11-20T05:00:10.214Z,5.99
2022-11-20T05:01:13.930Z,6.01
2022-11-20T05:02:15.841Z,6.03
2022-11-20T05:03:17.644Z,6.01
2022-11-20T05:04:19.558Z,5.96
2022-11-20T05:05:21.638Z,5.96
2022-11-20T05:06:23.653Z,5.99
2022-11-20T05:07:25.507Z,6.00
2022-11-20T05:08:27.324Z,6.01
2022-11-20T05:09:29.175Z,6.01
2022-11-20T05:10:31.056Z,5.98
2022-11-20T05:11:33.206Z,5.96
2022-11-20T05:12:34.952Z,5.96
2022-11-20T05:13:37.109Z,5.96
2022-11-20T05:14:39.070Z,5.95
2022-11-20T05:15:41.090Z,5.96
2022-11-20T05:16:43.163Z,5.96
2022-11-20T05:17:49.310Z,5.94
2022-11-20T05:18:51.882Z,5.96
2022-11-20T05:19:53.729Z,5.96
2022-11-20T05:20:56.217Z,5.90
2022-11-20T05:21:58.211Z,5.89
2022-11-20T05:23:00.438Z,5.91
2022-11-20T05:24:02.222Z,5.91
2022-11-20T05:25:04.024Z,5.87
2022-11-20T05:26:06.756Z,5.87
2022-11-20T05:27:08.670Z,5.88
2022-11-20T05:28:10.473Z,5.89
2022-11-20T05:29:13.342Z,5.87
2022-11-20T05:30:15.401Z,5.87
2022-11-20T05:31:26.223Z,5.87
2022-11-20T05:32:29.384Z,5.84
2022-11-20T05:33:31.193Z,5.84
2022-11-20T05:34:33.227Z,5.86
2022-11-20T05:35:35.149Z,5.86
2022-11-20T05:36:37.095Z,5.86
2022-11-20T05:37:38.923Z,5.86
2022-11-20T05:38:40.755Z,5.86
2022-11-20T05:39:42.563Z,5.86
2022-11-20T05:40:44.401Z,5.86
2022-11-20T05:41:46.283Z,5.85
2022-11-20T05:42:47.999Z,5.86
2022-11-20T05:43:51.052Z,5.89
2022-11-20T05:44:52.986Z,5.90
2022-11-20T05:45:55.623Z,5.85
2022-11-20T05:46:57.427Z,5.85
2022-11-20T05:48:01.297Z,5.86
2022-11-20T05:49:03.199Z,5.84
2022-11-20T05:50:05.173Z,5.83
2022-11-20T05:51:08.603Z,5.84
2022-11-20T05:52:10.455Z,5.85
2022-11-20T05:53:12.188Z,5.86
2022-11-20T05:54:14.541Z,5.85
2022-11-20T05:55:16.388Z,5.86
2022-11-20T05:56:19.518Z,5.85
2022-11-20T05:57:21.419Z,5.86
2022-11-20T05:58:23.281Z,5.89
2022-11-20T05:59:25.164Z,5.92
2022-11-20T06:00:26.966Z,5.91
2022-11-20T06:01:28.827Z,5.88
2022-11-20T06:02:30.743Z,5.87
2022-11-20T06:03:32.691Z,5.87
2022-11-20T06:04:34.548Z,5.85
2022-11-20T06:05:36.391Z,5.82
2022-11-20T06:06:38.231Z,5.84
2022-11-20T06:07:40.113Z,5.84
2022-11-20T06:08:42.422Z,5.88
2022-11-20T06:09:44.282Z,5.89
2022-11-20T06:10:46.087Z,5.91
2022-11-20T06:11:47.886Z,5.94
2022-11-20T06:12:49.723Z,5.93
2022-11-20T06:13:51.494Z,5.91
2022-11-20T06:14:53.277Z,5.87
2022-11-20T06:15:55.348Z,5.88
2022-11-20T06:16:57.150Z,5.87
2022-11-20T06:18:00.139Z,5.86
2022-11-20T06:19:01.971Z,5.87
2022-11-20T06:20:03.888Z,5.88
2022-11-20T06:21:10.139Z,5.86
2022-11-20T06:22:12.041Z,5.85
2022-11-20T06:23:13.976Z,5.78
2022-11-20T06:24:15.743Z,5.71
2022-11-20T06:25:17.507Z,5.66
2022-11-20T06:26:24.205Z,5.69
2022-11-20T06:27:25.960Z,5.73
2022-11-20T06:28:27.845Z,5.77
2022-11-20T06:29:33.914Z,5.81
2022-11-20T06:30:36.530Z,5.85
2022-11-20T06:31:39.037Z,5.87
2022-11-20T06:32:40.798Z,5.88
2022-11-20T06:33:43.278Z,5.90
2022-11-20T06:34:45.200Z,5.93
2022-11-20T06:35:47.047Z,5.97
2022-11-20T06:36:48.815Z,6.01
2022-11-20T06:37:50.556Z,6.01
2022-11-20T06:38:52.493Z,6.03
2022-11-20T06:39:54.347Z,6.03
2022-11-20T06:40:56.291Z,6.05
2022-11-20T06:41:59.315Z,6.04
2022-11-20T06:43:01.317Z,6.06
2022-11-20T06:44:04.611Z,6.06
2022-11-20T06:45:06.731Z,6.07
2022-11-20T06:46:10.082Z,6.02
2022-11-20T06:47:12.775Z,6.03
2022-11-20T06:48:14.786Z,6.05
2022-11-20T06:49:16.571Z,6.05
2022-11-20T06:50:18.508Z,6.05
2022-11-20T06:51:20.398Z,6.07
2022-11-20T06:52:22.277Z,6.08
2022-11-20T06:53:24.743Z,6.07
2022-11-20T06:54:26.568Z,6.05
2022-11-20T06:55:28.328Z,6.07
2022-11-20T06:56:30.195Z,6.07
2022-11-20T06:57:32.060Z,6.10
2022-11-20T06:58:34.608Z,6.10
2022-11-20T06:59:36.570Z,6.10
2022-11-20T07:00:38.434Z,6.11
2022-11-20T07:01:40.364Z,6.14
2022-11-20T07:02:42.233Z,6.14
2022-11-20T07:03:44.099Z,6.11
2022-11-20T07:04:45.882Z,6.11
2022-11-20T07:05:47.756Z,6.11
2022-11-20T07:06:49.870Z,6.01
2022-11-20T07:07:51.713Z,5.95
2022-11-20T07:08:56.151Z,5.90
2022-11-20T07:09:58.195Z,5.88
2022-11-20T07:11:01.350Z,5.89
2022-11-20T07:12:03.212Z,5.94
2022-11-20T07:13:05.014Z,5.97
2022-11-20T07:14:06.843Z,6.01
2022-11-20T07:15:08.828Z,6.03
2022-11-20T07:16:10.684Z,6.06
2022-11-20T07:17:12.770Z,6.05
2022-11-20T07:18:14.643Z,6.05
2022-11-20T07:19:16.644Z,6.06
2022-11-20T07:20:18.657Z,6.05
2022-11-20T07:21:20.432Z,6.08
2022-11-20T07:22:22.932Z,6.08
2022-11-20T07:23:24.830Z,6.10
2022-11-20T07:24:26.607Z,6.12
2022-11-20T07:25:29.000Z,6.15
2022-11-20T07:26:30.804Z,6.18
2022-11-20T07:27:32.614Z,6.18
2022-11-20T07:28:35.215Z,6.20
2022-11-20T07:29:36.969Z,6.19
2022-11-20T07:30:39.323Z,6.13
2022-11-20T07:31:41.169Z,6.09
2022-11-20T07:32:42.905Z,5.90
2022-11-20T07:33:44.731Z,5.89
2022-11-20T07:34:47.034Z,5.95
2022-11-20T07:35:48.907Z,5.94
2022-11-20T07:36:50.843Z,5.96
2022-11-20T07:37:52.769Z,5.93
2022-11-20T07:38:55.630Z,5.94
2022-11-20T07:39:57.441Z,5.97
2022-11-20T07:40:59.228Z,6.01
2022-11-20T07:42:01.105Z,6.02
2022-11-20T07:43:02.915Z,5.91
2022-11-20T07:44:04.886Z,5.81
2022-11-20T07:45:07.118Z,5.81
2022-11-20T07:46:08.962Z,5.79
2022-11-20T07:47:10.824Z,5.80
2022-11-20T07:48:12.559Z,5.81
2022-11-20T07:49:14.522Z,5.83
2022-11-20T07:50:16.478Z,5.88
2022-11-20T07:51:18.285Z,5.92
2022-11-20T07:52:20.125Z,5.97
2022-11-20T07:53:22.961Z,5.95
2022-11-20T07:54:24.885Z,5.99
2022-11-20T07:55:26.693Z,5.98
2022-11-20T07:56:28.476Z,5.91
2022-11-20T07:57:30.268Z,5.91
2022-11-20T07:58:34.357Z,5.95
2022-11-20T07:59:36.197Z,5.91
2022-11-20T08:00:37.980Z,5.94
2022-11-20T08:01:43.232Z,5.97
2022-11-20T08:02:45.419Z,5.99
2022-11-20T08:03:47.288Z,6.01
2022-11-20T08:04:49.253Z,5.97
2022-11-20T08:05:50.998Z,5.99
2022-11-20T08:06:55.806Z,5.98
2022-11-20T08:07:57.571Z,5.96
2022-11-20T08:08:59.390Z,5.98
2022-11-20T08:10:01.374Z,6.01
2022-11-20T08:11:23.420Z,6.08
2022-11-20T08:12:43.914Z,6.17
2022-11-20T08:14:03.992Z,6.21
2022-11-20T08:15:12.548Z,6.24
2022-11-20T08:16:15.053Z,6.26
2022-11-20T08:17:16.964Z,6.28
2022-11-20T08:18:34.387Z,6.27
2022-11-20T08:19:36.131Z,6.26
2022-11-20T08:20:38.118Z,6.17
2022-11-20T08:21:40.440Z,6.13
2022-11-20T08:22:42.334Z,6.08
2022-11-20T08:23:44.067Z,6.11
2022-11-20T08:24:45.872Z,6.15
2022-11-20T08:25:50.923Z,6.19
2022-11-20T08:26:52.881Z,6.20
2022-11-20T08:27:59.289Z,6.24
2022-11-20T08:29:02.046Z,6.28
2022-11-20T08:30:04.048Z,6.30
2022-11-20T08:31:06.072Z,6.32
2022-11-20T08:32:08.584Z,6.38
2022-11-20T08:33:10.445Z,6.43
2022-11-20T08:34:17.619Z,6.49
2022-11-20T08:35:21.350Z,6.54
2022-11-20T08:36:23.981Z,6.58
2022-11-20T08:37:25.766Z,6.59
2022-11-20T08:38:27.589Z,6.59
2022-11-20T08:39:29.484Z,6.59
2022-11-20T08:40:31.339Z,6.63
2022-11-20T08:41:34.518Z,6.67
2022-11-20T08:42:36.325Z,6.70
2022-11-20T08:43:38.087Z,6.72
2022-11-20T08:44:39.872Z,6.76
2022-11-20T08:45:41.678Z,6.78
2022-11-20T08:46:44.896Z,6.81
2022-11-20T08:47:47.333Z,6.81
2022-11-20T08:48:49.256Z,6.80
2022-11-20T08:49:50.992Z,6.77
2022-11-20T08:50:52.859Z,6.76
2022-11-20T08:51:56.578Z,6.73
2022-11-20T08:53:03.530Z,6.67
2022-11-20T08:54:05.765Z,6.71
2022-11-20T08:55:07.996Z,6.76
2022-11-20T08:56:10.942Z,6.78
2022-11-20T08:57:12.890Z,6.84
2022-11-20T08:58:14.823Z,6.80
2022-11-20T08:59:27.387Z,6.81
2022-11-20T09:00:38.708Z,6.84
2022-11-20T09:01:40.813Z,6.85
2022-11-20T09:02:42.764Z,6.87
2022-11-20T09:03:44.724Z,6.90
2022-11-20T09:04:46.543Z,6.95
2022-11-20T09:05:48.431Z,6.97
2022-11-20T09:06:52.229Z,6.99
2022-11-20T09:07:57.464Z,7.02
2022-11-20T09:09:03.476Z,7.06
2022-11-20T09:10:23.575Z,7.00
2022-11-20T09:11:26.338Z,7.01
2022-11-20T09:12:28.112Z,6.99
2022-11-20T09:13:30.541Z,7.01
2022-11-20T09:14:32.310Z,7.01
2022-11-20T09:15:35.088Z,7.04
2022-11-20T09:16:37.048Z,7.07
2022-11-20T09:17:38.826Z,7.07
2022-11-20T09:18:40.755Z,7.07
2022-11-20T09:19:42.917Z,7.04
2022-11-20T09:20:45.590Z,6.94
2022-11-20T09:21:47.499Z,6.89
2022-11-20T09:22:49.435Z,6.86
2022-11-20T09:23:51.273Z,6.87
2022-11-20T09:24:53.100Z,6.92
2022-11-20T09:25:57.006Z,6.96
2022-11-20T09:26:58.871Z,6.98
2022-11-20T09:28:00.838Z,7.03
2022-11-20T09:29:02.753Z,7.06
2022-11-20T09:30:05.458Z,7.07
2022-11-20T09:31:11.296Z,7.14
2022-11-20T09:32:13.204Z,7.19
2022-11-20T09:33:15.070Z,7.22
2022-11-20T09:34:17.030Z,7.24
2022-11-20T09:35:19.266Z,7.25
2022-11-20T09:36:21.173Z,7.16
2022-11-20T09:37:23.014Z,7.13
2022-11-20T09:38:24.845Z,7.14
2022-11-20T09:39:26.730Z,7.17
2022-11-20T09:40:29.870Z,7.17
2022-11-20T09:41:49.074Z,7.19
2022-11-20T09:43:07.374Z,7.20
2022-11-20T09:44:12.351Z,7.22
2022-11-20T09:45:17.368Z,7.26
2022-11-20T09:46:29.353Z,7.29
2022-11-20T09:47:50.074Z,7.20
2022-11-20T09:48:54.758Z,7.12
2022-11-20T09:50:03.538Z,7.10
2022-11-20T09:51:05.428Z,7.14
2022-11-20T09:52:23.617Z,7.22
2022-11-20T09:53:35.977Z,7.29
2022-11-20T09:54:39.616Z,7.35
2022-11-20T09:55:41.637Z,7.40
2022-11-20T09:56:45.494Z,7.47
2022-11-20T09:57:49.103Z,7.52
2022-11-20T09:58:53.128Z,7.52
2022-11-20T10:00:01.683Z,7.55
2022-11-20T10:01:11.003Z,7.54
2022-11-20T10:02:25.342Z,7.58
2022-11-20T10:03:56.682Z,7.61
2022-11-20T10:05:03.358Z,7.71
2022-11-20T10:06:06.584Z,7.77
2022-11-20T10:08:46.034Z,7.88
2022-11-20T10:09:55.637Z,7.90
2022-11-20T10:11:05.832Z,7.94
2022-11-20T10:12:19.771Z,7.96
2022-11-20T10:13:33.727Z,7.98
2022-11-20T10:14:54.171Z,7.98
2022-11-20T10:16:05.095Z,7.99
2022-11-20T10:17:09.901Z,7.98
2022-11-20T10:18:21.071Z,7.99
2022-11-20T10:19:49.112Z,8.03
2022-11-20T10:20:53.930Z,8.06
2022-11-20T10:22:02.762Z,8.07
2022-11-20T10:23:04.673Z,8.02
2022-11-20T10:24:22.321Z,7.98
2022-11-20T10:25:27.628Z,7.98
2022-11-20T10:26:49.579Z,7.92
2022-11-20T10:28:03.830Z,7.93
2022-11-20T10:29:08.945Z,7.94
2022-11-20T10:30:13.712Z,7.95
2022-11-20T10:31:32.863Z,7.88
2022-11-20T10:32:45.974Z,7.82
2022-11-20T10:34:11.158Z,7.88
2022-11-20T10:35:15.359Z,7.91
2022-11-20T10:36:23.884Z,7.95
2022-11-20T10:37:30.404Z,7.97
2022-11-20T10:38:40.839Z,7.95
2022-11-20T10:39:48.735Z,7.97
2022-11-20T10:40:54.041Z,7.98
2022-11-20T10:41:56.231Z,8.01
2022-11-20T10:43:01.043Z,8.00
2022-11-20T10:44:43.158Z,7.97
2022-11-20T10:45:55.666Z,7.87
2022-11-20T10:46:57.455Z,7.84
2022-11-20T10:48:19.612Z,7.82
2022-11-20T10:49:21.679Z,7.87
2022-11-20T10:50:24.158Z,7.88
2022-11-20T10:51:35.606Z,7.88
2022-11-20T10:52:37.369Z,7.92
2022-11-20T10:53:47.499Z,7.94
2022-11-20T10:54:55.393Z,7.99
2022-11-20T10:55:57.055Z,8.00
2022-11-20T10:57:05.508Z,7.99
2022-11-20T10:58:26.523Z,7.94
2022-11-20T10:59:31.696Z,7.92
2022-11-20T11:00:33.551Z,7.91
2022-11-20T11:01:40.765Z,7.92
2022-11-20T11:02:50.149Z,7.88
2022-11-20T11:03:53.069Z,7.87
2022-11-20T11:04:55.462Z,7.91
2022-11-20T11:06:11.885Z,7.94
2022-11-20T11:07:16.770Z,7.94
2022-11-20T11:08:20.389Z,7.90
2022-11-20T11:09:27.883Z,7.89
2022-11-20T11:10:37.747Z,7.90
2022-11-20T11:11:39.939Z,7.92
2022-11-20T11:12:45.177Z,7.91
2022-11-20T11:13:47.052Z,7.96
2022-11-20T11:14:53.311Z,7.97
2022-11-20T11:15:55.575Z,7.97
2022-11-20T11:16:58.777Z,7.98
2022-11-20T11:18:00.575Z,8.00
2022-11-20T11:19:12.843Z,8.03
2022-11-20T11:20:19.191Z,7.96
2022-11-20T11:21:27.346Z,7.94
2022-11-20T11:22:33.526Z,7.97
2022-11-20T11:23:36.367Z,7.99
2022-11-20T11:24:43.074Z,8.01
2022-11-20T11:25:57.329Z,8.06
2022-11-20T11:27:10.204Z,8.08
2022-11-20T11:28:18.275Z,8.10
2022-11-20T11:29:20.569Z,8.14
2022-11-20T11:30:23.768Z,8.15
2022-11-20T11:31:26.639Z,8.17
2022-11-20T11:32:28.519Z,8.19
2022-11-20T11:33:34.872Z,8.23
2022-11-20T11:34:36.753Z,8.25
2022-11-20T11:35:51.548Z,8.27
2022-11-20T11:36:57.552Z,8.25
2022-11-20T11:38:08.792Z,8.26
2022-11-20T11:39:16.497Z,8.25
2022-11-20T11:40:23.795Z,8.28
2022-11-20T11:41:29.774Z,8.31
2022-11-20T11:42:32.080Z,8.34
2022-11-20T11:43:53.737Z,8.40
2022-11-20T11:45:07.119Z,8.44
2022-11-20T11:46:27.506Z,8.47
2022-11-20T11:47:33.838Z,8.44
2022-11-20T11:48:35.679Z,8.39
2022-11-20T11:49:37.610Z,8.40
2022-11-20T11:50:49.342Z,8.40
2022-11-20T11:52:11.843Z,8.44
2022-11-20T11:53:15.956Z,8.48
2022-11-20T11:54:21.576Z,8.52
2022-11-20T11:55:41.697Z,8.55
2022-11-20T11:56:44.091Z,8.57
2022-11-20T11:57:51.228Z,8.53
2022-11-20T11:58:53.750Z,8.52
2022-11-20T12:00:10.824Z,8.55
2022-11-20T12:01:35.898Z,8.53
2022-11-20T12:02:40.590Z,8.53
2022-11-20T12:03:44.054Z,8.57
2022-11-20T12:04:51.975Z,8.60
2022-11-20T12:05:59.339Z,8.61
2022-11-20T12:07:44.461Z,8.63
2022-11-20T12:08:38.911Z,8.66
2022-11-20T12:09:45.120Z,8.73
2022-11-20T12:10:54.846Z,8.75
2022-11-20T12:12:31.903Z,8.78
2022-11-20T12:14:04.771Z,8.80
2022-11-20T12:15:11.078Z,8.79
2022-11-20T12:16:15.315Z,8.79
2022-11-20T12:17:17.202Z,8.84
2022-11-20T12:18:20.629Z,8.87
2022-11-20T12:19:22.777Z,8.90
2022-11-20T12:20:27.652Z,8.94
2022-11-20T12:21:38.615Z,8.97
2022-11-20T12:22:54.058Z,8.98
2022-11-20T12:24:03.443Z,9.00
2022-11-20T12:25:20.562Z,8.98
2022-11-20T12:27:00.804Z,8.92
2022-11-20T12:28:25.631Z,8.95
2022-11-20T12:29:39.681Z,8.93
2022-11-20T12:30:54.717Z,8.94
2022-11-20T12:32:05.679Z,8.96
2022-11-20T12:33:16.281Z,8.98
2022-11-20T12:34:17.997Z,9.00
2022-11-20T12:35:31.580Z,9.00
2022-11-20T12:36:42.398Z,9.02
2022-11-20T12:37:47.486Z,9.04
2022-11-20T12:38:56.609Z,9.01
2022-11-20T12:40:03.222Z,9.04
2022-11-20T12:41:15.577Z,8.99
2022-11-20T12:42:43.551Z,8.89
2022-11-20T12:44:12.611Z,8.86
2022-11-20T12:45:14.484Z,8.91
2022-11-20T12:46:37.717Z,8.92
2022-11-20T12:47:51.638Z,9.04
2022-11-20T12:48:53.507Z,9.12
2022-11-20T12:50:03.733Z,9.15
2022-11-20T12:51:20.687Z,9.19
2022-11-20T12:52:48.245Z,9.16
2022-11-20T12:54:08.554Z,9.13
2022-11-20T12:55:29.442Z,9.18
2022-11-20T12:56:51.225Z,9.28
2022-11-20T12:58:00.181Z,9.36
2022-11-20T12:59:07.673Z,9.38
2022-11-20T13:00:15.987Z,9.40
2022-11-20T13:01:38.129Z,9.43
2022-11-20T13:02:59.189Z,9.44
2022-11-20T13:04:10.578Z,9.45
2022-11-20T13:05:15.502Z,9.49
2022-11-20T13:06:18.815Z,9.47
2022-11-20T13:07:21.802Z,9.40
2022-11-20T13:08:29.086Z,9.40
2022-11-20T13:09:31.340Z,9.38
2022-11-20T13:10:37.279Z,9.31
2022-11-20T13:11:44.438Z,9.23
2022-11-20T13:12:48.351Z,9.15
2022-11-20T13:13:59.465Z,9.09
2022-11-20T13:15:07.510Z,9.06
2022-11-20T13:16:21.700Z,9.07
2022-11-20T13:17:35.911Z,9.07
2022-11-20T13:18:40.761Z,9.05
2022-11-20T13:19:43.412Z,9.00
2022-11-20T13:20:46.455Z,8.94
2022-11-20T13:21:50.742Z,8.94
2022-11-20T13:22:55.823Z,8.97
2022-11-20T13:24:05.907Z,8.91
2022-11-20T13:25:16.208Z,8.85
2022-11-20T13:26:22.626Z,8.86
2022-11-20T13:27:25.179Z,8.79
2022-11-20T13:28:31.095Z,8.81
2022-11-20T13:29:34.127Z,8.84
2022-11-20T13:30:36.792Z,8.84
2022-11-20T13:31:43.793Z,8.80
2022-11-20T13:32:55.224Z,8.80
2022-11-20T13:33:57.848Z,8.80
2022-11-20T13:34:59.899Z,8.82
2022-11-20T13:36:07.668Z,8.83
2022-11-20T13:37:25.613Z,8.86
2022-11-20T13:38:30.029Z,8.88
2022-11-20T13:39:37.041Z,8.88
2022-11-20T13:40:40.310Z,8.88
2022-11-20T13:41:42.638Z,8.90
2022-11-20T13:42:44.495Z,8.91
2022-11-20T13:43:48.594Z,8.91
2022-11-20T13:45:01.868Z,8.91
2022-11-20T13:46:08.019Z,8.91
2022-11-20T13:47:23.979Z,8.93
2022-11-20T13:48:28.593Z,8.92
2022-11-20T13:49:38.942Z,8.92
2022-11-20T13:50:53.964Z,8.92
2022-11-20T13:52:01.625Z,8.91
2022-11-20T13:53:03.607Z,8.93
2022-11-20T13:54:26.224Z,8.91
2022-11-20T13:55:37.108Z,8.91
2022-11-20T13:56:49.704Z,8.93
2022-11-20T13:58:10.217Z,8.94
2022-11-20T13:59:14.844Z,8.91
2022-11-20T14:00:18.684Z,8.89
2022-11-20T14:01:28.660Z,8.85
2022-11-20T14:02:32.607Z,8.85
2022-11-20T14:04:04.437Z,8.87
2022-11-20T14:05:00.122Z,8.89
2022-11-20T14:06:22.293Z,8.81
2022-11-20T14:07:27.686Z,8.71
2022-11-20T14:08:37.109Z,8.66
2022-11-20T14:09:39.004Z,8.44
2022-11-20T14:10:41.187Z,8.36
2022-11-20T14:11:49.582Z,8.27
2022-11-20T14:12:53.192Z,8.26
2022-11-20T14:14:04.588Z,8.31
2022-11-20T14:15:06.981Z,8.32
2022-11-20T14:16:10.612Z,8.34
2022-11-20T14:17:23.589Z,8.40
2022-11-20T14:18:27.090Z,8.38
2022-11-20T14:19:31.676Z,8.33
2022-11-20T14:20:34.393Z,8.34
2022-11-20T14:21:36.733Z,8.38
2022-11-20T14:22:39.110Z,8.42
2022-11-20T14:23:41.145Z,8.47
2022-11-20T14:24:42.911Z,8.49
2022-11-20T14:25:47.728Z,8.49